createdAt,value
2018-03-19T00:00:41.805Z,7.63
2018-03-19T00:03:45.134Z,6.40
2018-03-19T00:06:48.504Z,3.60
2018-03-19T00:09:51.884Z,3.80
2018-03-19T00:12:56.010Z,5.67
2018-03-19T00:15:59.390Z,4.80
2018-03-19T00:19:03.662Z,4.07
2018-03-19T00:22:06.992Z,6.17
2018-03-19T00:25:11.842Z,5.93
2018-03-19T00:28:15.955Z,6.20
2018-03-19T00:31:19.318Z,6.30
2018-03-19T00:34:22.739Z,5.30
2018-03-19T00:37:26.915Z,6.20
2018-03-19T00:40:30.269Z,7.07
2018-03-19T00:43:33.728Z,7.33
2018-03-19T00:46:37.104Z,4.80
2018-03-19T00:49:40.698Z,9.13
2018-03-19T00:52:44.094Z,10.90
2018-03-19T00:55:47.481Z,4.87
2018-03-19T00:58:51.603Z,7.30
2018-03-19T01:01:55.746Z,10.53
2018-03-19T01:04:59.102Z,5.63
2018-03-19T01:08:03.241Z,3.60
2018-03-19T01:11:06.633Z,5.17
2018-03-19T01:14:10.780Z,5.17
2018-03-19T01:17:14.129Z,7.90
2018-03-19T01:20:18.245Z,7.37
2018-03-19T01:23:21.610Z,7.50
2018-03-19T01:26:24.970Z,7.67
2018-03-19T01:29:28.331Z,4.23
2018-03-19T01:32:33.202Z,5.87
2018-03-19T01:35:36.564Z,6.37
2018-03-19T01:38:40.679Z,5.70
2018-03-19T01:41:45.549Z,9.63
2018-03-19T01:44:48.929Z,17.40
2018-03-19T01:47:52.379Z,12.63
2018-03-19T01:50:55.724Z,8.13
2018-03-19T01:53:59.078Z,6.63
2018-03-19T01:57:02.429Z,6.80
2018-03-19T02:00:06.614Z,8.23
2018-03-19T02:03:09.956Z,6.40
2018-03-19T02:06:14.112Z,9.73
2018-03-19T02:09:17.598Z,12.27
2018-03-19T02:12:20.988Z,12.87
2018-03-19T02:15:24.449Z,7.10
2018-03-19T02:18:27.784Z,11.00
2018-03-19T02:21:31.144Z,10.30
2018-03-19T02:24:34.499Z,10.47
2018-03-19T02:27:37.862Z,5.83
2018-03-19T02:30:41.991Z,9.70
2018-03-19T02:33:45.369Z,9.93
2018-03-19T02:36:48.871Z,10.33
2018-03-19T02:39:53.221Z,8.53
2018-03-19T02:42:56.582Z,11.47
2018-03-19T02:46:00.888Z,10.43
2018-03-19T02:49:04.245Z,14.03
2018-03-19T02:52:07.595Z,9.40
2018-03-19T02:55:10.985Z,7.53
2018-03-19T02:58:14.336Z,6.67
2018-03-19T03:01:17.700Z,5.30
2018-03-19T03:04:21.878Z,6.17
2018-03-19T03:07:25.264Z,5.50
2018-03-19T03:10:28.630Z,4.50
2018-03-19T03:13:32.744Z,11.43
2018-03-19T03:16:36.867Z,6.43
2018-03-19T03:19:40.992Z,5.07
2018-03-19T03:22:44.350Z,7.47
2018-03-19T03:25:47.701Z,6.30
2018-03-19T03:28:51.095Z,4.60
2018-03-19T03:31:54.459Z,7.60
2018-03-19T03:34:58.586Z,5.97
2018-03-19T03:38:02.699Z,7.97
2018-03-19T03:41:06.817Z,8.67
2018-03-19T03:44:10.961Z,5.37
2018-03-19T03:47:14.366Z,7.27
2018-03-19T03:50:17.706Z,7.73
2018-03-19T03:53:21.029Z,10.50
2018-03-19T03:56:25.153Z,9.90
2018-03-19T03:59:29.260Z,9.70
2018-03-19T04:02:33.421Z,6.00
2018-03-19T04:05:36.792Z,5.37
2018-03-19T04:08:40.914Z,9.90
2018-03-19T04:11:44.256Z,5.67
2018-03-19T04:14:47.636Z,10.27
2018-03-19T04:17:51.180Z,6.13
2018-03-19T04:20:56.039Z,9.37
2018-03-19T04:24:00.158Z,8.07
2018-03-19T04:27:03.527Z,8.67
2018-03-19T04:30:08.506Z,6.57
2018-03-19T04:33:11.878Z,5.90
2018-03-19T04:36:16.013Z,7.63
2018-03-19T04:39:19.481Z,14.27
2018-03-19T04:42:24.342Z,9.97
2018-03-19T04:45:28.479Z,7.43
2018-03-19T04:48:31.843Z,9.07
2018-03-19T04:51:35.206Z,6.67
2018-03-19T04:54:38.666Z,9.37
2018-03-19T04:57:42.013Z,7.27
2018-03-19T05:00:45.382Z,11.33
2018-03-19T05:03:48.745Z,7.43
2018-03-19T05:06:52.921Z,9.53
2018-03-19T05:09:56.393Z,8.70
2018-03-19T05:12:59.747Z,5.10
2018-03-19T05:16:03.097Z,8.97
2018-03-19T05:19:06.444Z,7.37
2018-03-19T05:22:11.350Z,5.57
2018-03-19T05:25:14.725Z,12.93
2018-03-19T05:28:18.118Z,8.80
2018-03-19T05:31:21.522Z,6.30
2018-03-19T05:34:25.619Z,6.47
2018-03-19T05:37:29.737Z,8.77
2018-03-19T05:40:33.190Z,6.13
2018-03-19T05:43:36.888Z,8.00
2018-03-19T05:46:40.257Z,7.17
2018-03-19T05:49:43.818Z,9.37
2018-03-19T05:52:47.175Z,7.00
2018-03-19T05:55:50.659Z,6.93
2018-03-19T05:58:54.018Z,12.33
2018-03-19T06:01:58.944Z,8.70
2018-03-19T06:05:02.301Z,8.83
2018-03-19T06:08:05.681Z,7.13
2018-03-19T06:11:09.060Z,11.33
2018-03-19T06:14:13.291Z,9.23
2018-03-19T06:17:17.401Z,7.23
2018-03-19T06:20:21.522Z,6.97
2018-03-19T06:23:25.638Z,10.87
2018-03-19T06:26:29.778Z,9.27
2018-03-19T06:29:33.247Z,15.17
2018-03-19T06:32:37.366Z,10.33
2018-03-19T06:35:41.508Z,7.20
2018-03-19T06:38:45.113Z,8.87
2018-03-19T06:41:48.461Z,8.53
2018-03-19T06:44:51.806Z,4.63
2018-03-19T06:47:55.166Z,8.60
2018-03-19T06:50:59.312Z,7.77
2018-03-19T06:54:03.430Z,9.77
2018-03-19T06:57:06.828Z,8.47
2018-03-19T07:00:10.175Z,9.00
2018-03-19T07:03:13.527Z,7.40
2018-03-19T07:06:16.903Z,13.07
2018-03-19T07:09:21.058Z,8.57
2018-03-19T07:12:24.421Z,8.50
2018-03-19T07:15:28.551Z,9.03
2018-03-19T07:18:32.781Z,6.53
2018-03-19T07:21:36.354Z,9.17
2018-03-19T07:24:39.717Z,7.47
2018-03-19T07:27:43.098Z,7.53
2018-03-19T07:30:46.472Z,7.37
2018-03-19T07:33:50.616Z,11.03
2018-03-19T07:36:53.974Z,9.17
2018-03-19T07:39:58.169Z,8.40
2018-03-19T07:43:01.533Z,10.73
2018-03-19T07:46:04.930Z,7.53
2018-03-19T07:49:08.356Z,7.67
2018-03-19T07:52:11.726Z,10.10
2018-03-19T07:55:15.094Z,7.70
2018-03-19T07:58:19.530Z,9.73
2018-03-19T08:01:22.877Z,6.77
2018-03-19T08:04:26.330Z,5.73
2018-03-19T08:07:29.726Z,8.00
2018-03-19T08:10:33.846Z,7.87
2018-03-19T08:13:37.214Z,7.87
2018-03-19T08:16:41.325Z,9.90
2018-03-19T08:19:44.782Z,5.87
2018-03-19T08:22:48.262Z,12.30
2018-03-19T08:25:51.873Z,6.60
2018-03-19T08:28:55.382Z,7.90
2018-03-19T08:31:58.739Z,12.27
2018-03-19T08:35:02.095Z,9.67
2018-03-19T08:38:05.589Z,9.97
2018-03-19T08:41:08.932Z,6.47
2018-03-19T08:44:12.287Z,8.07
2018-03-19T08:47:15.656Z,7.77
2018-03-19T08:50:19.814Z,9.33
2018-03-19T08:53:23.190Z,9.10
2018-03-19T08:56:26.541Z,9.27
2018-03-19T08:59:29.910Z,6.80
2018-03-19T09:02:33.290Z,7.60
2018-03-19T09:05:36.646Z,8.43
2018-03-19T09:08:40.020Z,11.20
2018-03-19T09:11:43.766Z,7.33
2018-03-19T09:14:48.074Z,14.33
2018-03-19T09:17:51.434Z,10.13
2018-03-19T09:20:54.811Z,7.77
2018-03-19T09:23:58.196Z,6.23
2018-03-19T09:27:02.293Z,5.57
2018-03-19T09:30:05.691Z,8.50
2018-03-19T09:33:09.952Z,8.43
2018-03-19T09:36:13.337Z,6.73
2018-03-19T09:39:16.689Z,10.03
2018-03-19T09:42:21.236Z,5.40
2018-03-19T09:45:24.590Z,8.43
2018-03-19T09:48:28.046Z,7.33
2018-03-19T09:51:32.177Z,7.00
2018-03-19T09:54:35.655Z,7.50
2018-03-19T09:57:39.176Z,6.10
2018-03-19T10:00:42.745Z,6.60
2018-03-19T10:03:47.616Z,7.50
2018-03-19T10:06:51.063Z,5.30
2018-03-19T10:09:54.423Z,8.07
2018-03-19T10:12:57.768Z,7.63
2018-03-19T10:16:01.237Z,7.70
2018-03-19T10:19:04.594Z,7.33
2018-03-19T10:22:08.759Z,7.80
2018-03-19T10:25:12.147Z,6.93
2018-03-19T10:28:15.502Z,5.53
2018-03-19T10:31:19.630Z,7.33
2018-03-19T10:34:23.787Z,5.17
2018-03-19T10:37:27.338Z,7.63
2018-03-19T10:40:30.682Z,6.80
2018-03-19T10:43:34.125Z,7.23
2018-03-19T10:46:38.252Z,5.50
2018-03-19T10:49:41.649Z,5.67
2018-03-19T10:52:45.001Z,4.33
2018-03-19T10:55:48.362Z,6.50
2018-03-19T10:58:52.486Z,9.00
2018-03-19T11:02:02.105Z,6.10
2018-03-19T11:05:10.829Z,7.30
2018-03-19T11:08:14.174Z,6.07
2018-03-19T11:11:17.587Z,6.77
2018-03-19T11:14:20.951Z,10.70
2018-03-19T11:17:24.301Z,7.13
2018-03-19T11:20:27.663Z,6.20
2018-03-19T11:23:31.085Z,9.13
2018-03-19T11:26:34.659Z,7.47
2018-03-19T11:29:38.025Z,8.77
2018-03-19T11:32:41.552Z,7.57
2018-03-19T11:35:45.669Z,6.57
2018-03-19T11:38:49.908Z,7.10
2018-03-19T11:41:53.401Z,6.87
2018-03-19T11:44:57.637Z,5.73
2018-03-19T11:48:00.990Z,7.23
2018-03-19T11:51:05.113Z,5.90
2018-03-19T11:54:09.249Z,30.67
2018-03-19T11:57:12.590Z,6.60
2018-03-19T12:00:15.943Z,7.53
2018-03-19T12:03:20.073Z,4.93
2018-03-19T12:06:23.488Z,8.17
2018-03-19T12:09:26.859Z,6.17
2018-03-19T12:12:30.258Z,8.50
2018-03-19T12:15:33.710Z,5.30
2018-03-19T12:18:37.096Z,6.50
2018-03-19T12:21:40.475Z,5.30
2018-03-19T12:24:43.835Z,6.23
2018-03-19T12:27:47.966Z,7.37
2018-03-19T12:30:52.089Z,6.27
2018-03-19T12:33:55.621Z,5.63
2018-03-19T12:36:59.043Z,7.23
2018-03-19T12:40:02.435Z,6.83
2018-03-19T12:43:05.798Z,4.63
2018-03-19T12:46:09.172Z,8.70
2018-03-19T12:49:13.338Z,5.20
2018-03-19T12:52:16.810Z,4.63
2018-03-19T12:55:20.177Z,3.70
2018-03-19T12:58:23.530Z,4.57
2018-03-19T13:01:26.940Z,5.50
2018-03-19T13:04:31.180Z,6.37
2018-03-19T13:07:34.538Z,5.33
2018-03-19T13:10:37.917Z,6.10
2018-03-19T13:13:41.270Z,7.23
2018-03-19T13:16:44.629Z,7.33
2018-03-19T13:19:47.990Z,7.73
2018-03-19T13:22:51.382Z,7.20
2018-03-19T13:25:54.791Z,10.03
2018-03-19T13:28:58.187Z,7.73
2018-03-19T13:32:01.541Z,8.70
2018-03-19T13:35:04.913Z,8.40
2018-03-19T13:38:09.030Z,6.37
2018-03-19T13:41:12.409Z,3.63
2018-03-19T13:44:16.557Z,6.90
2018-03-19T13:47:19.907Z,4.57
2018-03-19T13:50:24.267Z,5.47
2018-03-19T13:53:27.666Z,4.57
2018-03-19T13:56:31.003Z,5.93
2018-03-19T13:59:34.400Z,6.70
2018-03-19T14:02:37.765Z,5.53
2018-03-19T14:05:41.197Z,5.30
2018-03-19T14:08:45.279Z,6.27
2018-03-19T14:11:48.665Z,4.70
2018-03-19T14:14:52.803Z,5.70
2018-03-19T14:17:56.194Z,7.50
2018-03-19T14:20:59.696Z,7.27
2018-03-19T14:24:03.126Z,3.00
2018-03-19T14:27:06.489Z,5.07
2018-03-19T14:30:10.614Z,3.53
2018-03-19T14:33:14.005Z,4.63
2018-03-19T14:36:18.173Z,3.53
2018-03-19T14:39:21.534Z,3.47
2018-03-19T14:42:24.910Z,4.70
2018-03-19T14:45:29.687Z,4.00
2018-03-19T14:48:33.042Z,3.43
2018-03-19T14:51:37.137Z,3.73
2018-03-19T14:54:40.493Z,3.40
2018-03-19T14:57:43.863Z,3.00
2018-03-19T15:00:47.214Z,4.17
2018-03-19T15:03:50.573Z,3.37
2018-03-19T15:06:53.970Z,2.77
2018-03-19T15:09:57.333Z,4.00
2018-03-19T15:13:00.728Z,4.37
2018-03-19T15:16:05.895Z,2.77
2018-03-19T15:19:10.021Z,4.73
2018-03-19T15:22:14.142Z,3.37
2018-03-19T15:25:17.550Z,5.57
2018-03-19T15:28:20.931Z,3.33
2018-03-19T15:31:25.082Z,5.93
2018-03-19T15:34:28.424Z,4.63
2018-03-19T15:37:31.883Z,4.87
2018-03-19T15:40:35.205Z,4.77
2018-03-19T15:43:38.689Z,6.20
2018-03-19T15:46:42.153Z,6.27
2018-03-19T15:49:45.509Z,6.07
2018-03-19T15:52:50.385Z,6.50
2018-03-19T15:55:54.524Z,4.37
2018-03-19T15:58:57.870Z,5.93
2018-03-19T16:02:01.223Z,6.30
2018-03-19T16:05:05.336Z,7.67
2018-03-19T16:08:08.679Z,7.53
2018-03-19T16:11:12.810Z,6.60
2018-03-19T16:14:16.182Z,7.07
2018-03-19T16:17:19.690Z,7.07
2018-03-19T16:20:23.034Z,7.23
2018-03-19T16:23:26.448Z,7.20
2018-03-19T16:26:29.866Z,8.10
2018-03-19T16:29:33.262Z,6.50
2018-03-19T16:32:36.683Z,6.10
2018-03-19T16:35:40.042Z,10.23
2018-03-19T16:38:43.411Z,8.77
2018-03-19T16:41:47.526Z,7.47
2018-03-19T16:44:51.746Z,10.00
2018-03-19T16:47:56.267Z,10.13
2018-03-19T16:50:59.638Z,6.77
2018-03-19T16:54:03.002Z,8.20
2018-03-19T16:57:06.357Z,7.90
2018-03-19T17:00:09.719Z,8.53
2018-03-19T17:03:13.161Z,9.20
2018-03-19T17:06:16.543Z,10.57
2018-03-19T17:09:21.426Z,8.67
2018-03-19T17:12:24.953Z,8.33
2018-03-19T17:15:28.353Z,10.07
2018-03-19T17:18:31.712Z,7.50
2018-03-19T17:21:35.844Z,9.40
2018-03-19T17:24:39.220Z,6.27
2018-03-19T17:27:43.403Z,7.27
2018-03-19T17:30:46.956Z,7.23
2018-03-19T17:33:50.469Z,10.87
2018-03-19T17:36:53.858Z,7.07
2018-03-19T17:39:57.275Z,7.33
2018-03-19T17:43:00.663Z,4.90
2018-03-19T17:46:04.032Z,10.73
2018-03-19T17:49:07.397Z,10.03
2018-03-19T17:52:10.765Z,7.37
2018-03-19T17:55:15.977Z,5.93
2018-03-19T17:58:20.126Z,13.03
2018-03-19T18:01:23.556Z,9.37
2018-03-19T18:04:26.837Z,9.17
2018-03-19T18:07:30.235Z,14.23
2018-03-19T18:10:33.619Z,11.00
2018-03-19T18:13:36.994Z,16.27
2018-03-19T18:16:41.122Z,10.20
2018-03-19T18:19:45.253Z,14.47
2018-03-19T18:22:48.631Z,17.07
2018-03-19T18:25:52.786Z,14.47
2018-03-19T18:28:56.182Z,12.83
2018-03-19T18:31:59.621Z,14.53
2018-03-19T18:35:03.778Z,10.90
2018-03-19T18:38:07.890Z,12.63
2018-03-19T18:41:11.278Z,15.53
2018-03-19T18:44:15.403Z,12.50
2018-03-19T18:47:19.627Z,17.90
2018-03-19T18:50:22.989Z,12.33
2018-03-19T18:53:27.136Z,19.20
2018-03-19T18:56:31.265Z,16.27
2018-03-19T18:59:34.629Z,19.77
2018-03-19T19:02:37.988Z,12.07
2018-03-19T19:05:42.180Z,15.53
2018-03-19T19:08:45.578Z,18.77
2018-03-19T19:11:48.963Z,12.37
2018-03-19T19:14:53.083Z,15.97
2018-03-19T19:17:57.215Z,20.97
2018-03-19T19:21:00.676Z,15.63
2018-03-19T19:24:04.102Z,19.20
2018-03-19T19:27:08.294Z,22.57
2018-03-19T19:30:13.478Z,20.10
2018-03-19T19:33:16.948Z,12.63
2018-03-19T19:36:21.137Z,28.43
2018-03-19T19:39:26.078Z,24.93
2018-03-19T19:42:30.347Z,19.33
2018-03-19T19:45:33.842Z,18.40
2018-03-19T19:48:37.231Z,23.50
2018-03-19T19:51:41.385Z,28.37
2018-03-19T19:54:44.758Z,20.10
2018-03-19T19:57:48.128Z,15.87
2018-03-19T20:00:51.578Z,22.03
2018-03-19T20:03:54.943Z,16.87
2018-03-19T20:06:59.099Z,23.67
2018-03-19T20:10:02.457Z,17.03
2018-03-19T20:13:06.708Z,20.77
2018-03-19T20:16:10.124Z,26.57
2018-03-19T20:19:13.509Z,24.60
2018-03-19T20:22:16.867Z,27.13
2018-03-19T20:25:20.298Z,24.00
2018-03-19T20:28:23.823Z,23.90
2018-03-19T20:31:27.170Z,19.40
2018-03-19T20:34:31.299Z,27.63
2018-03-19T20:37:35.431Z,17.80
2018-03-19T20:40:38.784Z,26.67
2018-03-19T20:43:42.952Z,26.57
2018-03-19T20:46:46.328Z,23.83
2018-03-19T20:49:50.554Z,21.07
2018-03-19T20:52:54.715Z,29.67
2018-03-19T20:55:58.698Z,26.17
2018-03-19T20:59:02.055Z,19.13
2018-03-19T21:02:05.450Z,14.00
2018-03-19T21:05:08.798Z,26.07
2018-03-19T21:08:12.788Z,14.70
2018-03-19T21:11:16.916Z,18.97
2018-03-19T21:14:20.341Z,25.10
2018-03-19T21:17:23.797Z,30.60
2018-03-19T21:20:27.971Z,14.13
2018-03-19T21:23:31.335Z,9.73
2018-03-19T21:26:34.766Z,23.20
2018-03-19T21:29:38.133Z,22.13
2018-03-19T21:32:41.514Z,14.77
2018-03-19T21:35:45.682Z,18.57
2018-03-19T21:38:49.050Z,19.70
2018-03-19T21:41:52.429Z,26.07
2018-03-19T21:44:56.559Z,21.43
2018-03-19T21:48:00.692Z,21.47
2018-03-19T21:51:04.050Z,20.33
2018-03-19T21:54:07.376Z,24.23
2018-03-19T21:57:11.504Z,23.07
2018-03-19T22:00:14.898Z,18.90
2018-03-19T22:03:18.256Z,32.57
2018-03-19T22:06:22.377Z,22.53
2018-03-19T22:09:25.741Z,22.73
2018-03-19T22:12:29.153Z,24.40
2018-03-19T22:15:32.513Z,19.93
2018-03-19T22:18:35.876Z,25.23
2018-03-19T22:21:39.243Z,34.27
2018-03-19T22:24:42.600Z,38.77
2018-03-19T22:27:46.117Z,19.33
2018-03-19T22:30:50.594Z,25.13
2018-03-19T22:33:53.986Z,24.17
2018-03-19T22:36:57.417Z,18.80
2018-03-19T22:40:02.503Z,28.20
2018-03-19T22:43:05.873Z,23.20
2018-03-19T22:46:09.226Z,21.00
2018-03-19T22:49:12.595Z,18.37
2018-03-19T22:52:15.974Z,28.20
2018-03-19T22:55:19.341Z,28.20
2018-03-19T22:58:23.477Z,19.40
2018-03-19T23:01:26.839Z,17.27
2018-03-19T23:04:48.625Z,19.80
2018-03-19T23:07:51.996Z,17.40
2018-03-19T23:10:56.135Z,20.00
2018-03-19T23:13:59.555Z,21.73
2018-03-19T23:17:02.922Z,18.13
2018-03-19T23:20:07.042Z,20.20
2018-03-19T23:23:10.444Z,19.27
2018-03-19T23:26:13.802Z,21.70
2018-03-19T23:29:17.914Z,15.57
2018-03-19T23:32:21.293Z,22.53
2018-03-19T23:35:24.642Z,17.27
2018-03-19T23:38:28.761Z,17.70
2018-03-19T23:41:32.882Z,20.33
2018-03-19T23:44:36.242Z,23.67
2018-03-19T23:47:39.622Z,26.07
2018-03-19T23:50:42.981Z,21.43
2018-03-19T23:53:46.360Z,20.17
2018-03-19T23:56:50.488Z,26.03
2018-03-19T23:59:54.819Z,16.10
